sensor_id;sensor_type;location;lat;lon;timestamp;temperature;humidity
11812;DHT22;5963;50.184;9.162;2023-01-04T00:02:03;4.40;99.90
11812;DHT22;5963;50.184;9.162;2023-01-04T00:04:34;4.40;99.90
11812;DHT22;5963;50.184;9.162;2023-01-04T00:07:07;4.70;99.90
11812;DHT22;5963;50.184;9.162;2023-01-04T00:09:39;4.60;99.90
11812;DHT22;5963;50.184;9.162;2023-01-04T00:12:13;4.70;99.90
11812;DHT22;5963;50.184;9.162;2023-01-04T00:14:44;4.70;99.90
11812;DHT22;5963;50.184;9.162;2023-01-04T00:17:15;4.90;99.90
11812;DHT22;5963;50.184;9.162;2023-01-04T00:19:45;4.90;99.90
11812;DHT22;5963;50.184;9.162;2023-01-04T00:22:17;4.90;99.90
11812;DHT22;5963;50.184;9.162;2023-01-04T00:24:47;4.70;99.90
11812;DHT22;5963;50.184;9.162;2023-01-04T00:27:20;4.80;99.90
11812;DHT22;5963;50.184;9.162;2023-01-04T00:29:52;4.80;99.90
11812;DHT22;5963;50.184;9.162;2023-01-04T00:32:23;4.80;99.90
11812;DHT22;5963;50.184;9.162;2023-01-04T00:34:53;4.60;99.90
11812;DHT22;5963;50.184;9.162;2023-01-04T00:37:22;4.70;99.90
11812;DHT22;5963;50.184;9.162;2023-01-04T00:39:52;4.70;99.90
11812;DHT22;5963;50.184;9.162;2023-01-04T00:42:24;4.70;99.90
11812;DHT22;5963;50.184;9.162;2023-01-04T00:44:56;4.80;99.90
11812;DHT22;5963;50.184;9.162;2023-01-04T00:47:27;4.80;99.90
11812;DHT22;5963;50.184;9.162;2023-01-04T00:50:00;4.80;99.90
11812;DHT22;5963;50.184;9.162;2023-01-04T00:52:31;5.00;99.90
11812;DHT22;5963;50.184;9.162;2023-01-04T00:55:05;5.00;99.90
11812;DHT22;5963;50.184;9.162;2023-01-04T00:57:36;5.10;99.90
11812;DHT22;5963;50.184;9.162;2023-01-04T01:00:07;5.00;99.90
11812;DHT22;5963;50.184;9.162;2023-01-04T01:02:38;4.90;99.90
11812;DHT22;5963;50.184;9.162;2023-01-04T01:05:18;5.00;99.90
11812;DHT22;5963;50.184;9.162;2023-01-04T01:07:51;5.00;99.90
11812;DHT22;5963;50.184;9.162;2023-01-04T01:10:21;5.00;99.90
11812;DHT22;5963;50.184;9.162;2023-01-04T01:12:56;4.90;99.90
11812;DHT22;5963;50.184;9.162;2023-01-04T01:15:26;5.10;99.90
11812;DHT22;5963;50.184;9.162;2023-01-04T01:17:56;5.10;99.90
11812;DHT22;5963;50.184;9.162;2023-01-04T01:20:28;5.20;99.90
11812;DHT22;5963;50.184;9.162;2023-01-04T01:22:58;5.20;99.90
11812;DHT22;5963;50.184;9.162;2023-01-04T01:25:27;5.20;99.90
11812;DHT22;5963;50.184;9.162;2023-01-04T01:27:56;5.30;99.90
11812;DHT22;5963;50.184;9.162;2023-01-04T01:30:27;5.20;99.90
11812;DHT22;5963;50.184;9.162;2023-01-04T01:32:58;5.20;99.90
11812;DHT22;5963;50.184;9.162;2023-01-04T01:35:29;5.20;99.90
11812;DHT22;5963;50.184;9.162;2023-01-04T01:37:59;5.20;99.90
11812;DHT22;5963;50.184;9.162;2023-01-04T01:40:30;5.10;99.90
11812;DHT22;5963;50.184;9.162;2023-01-04T01:43:02;5.20;99.90
11812;DHT22;5963;50.184;9.162;2023-01-04T01:45:35;5.30;99.90
11812;DHT22;5963;50.184;9.162;2023-01-04T01:48:09;5.60;99.90
11812;DHT22;5963;50.184;9.162;2023-01-04T01:50:48;5.60;99.90
11812;DHT22;5963;50.184;9.162;2023-01-04T01:53:21;5.50;99.90
11812;DHT22;5963;50.184;9.162;2023-01-04T01:55:53;5.50;99.90
11812;DHT22;5963;50.184;9.162;2023-01-04T01:58:29;5.30;99.90
11812;DHT22;5963;50.184;9.162;2023-01-04T02:01:02;5.40;99.90
11812;DHT22;5963;50.184;9.162;2023-01-04T02:03:34;5.60;99.90
11812;DHT22;5963;50.184;9.162;2023-01-04T02:06:10;5.40;99.90
11812;DHT22;5963;50.184;9.162;2023-01-04T02:08:42;5.50;99.90
11812;DHT22;5963;50.184;9.162;2023-01-04T02:11:16;5.40;99.90
11812;DHT22;5963;50.184;9.162;2023-01-04T02:13:47;5.40;99.90
11812;DHT22;5963;50.184;9.162;2023-01-04T02:16:43;5.20;99.90
11812;DHT22;5963;50.184;9.162;2023-01-04T02:19:44;5.30;99.90
11812;DHT22;5963;50.184;9.162;2023-01-04T02:22:46;5.20;99.90
11812;DHT22;5963;50.184;9.162;2023-01-04T02:28:37;5.10;99.90
11812;DHT22;5963;50.184;9.162;2023-01-04T02:31:27;5.00;99.90
11812;DHT22;5963;50.184;9.162;2023-01-04T02:34:02;5.00;99.90
11812;DHT22;5963;50.184;9.162;2023-01-04T02:36:43;5.10;99.90
11812;DHT22;5963;50.184;9.162;2023-01-04T02:39:22;5.00;99.90
11812;DHT22;5963;50.184;9.162;2023-01-04T02:42:01;5.40;99.90
11812;DHT22;5963;50.184;9.162;2023-01-04T02:44:34;5.40;99.90
11812;DHT22;5963;50.184;9.162;2023-01-04T02:47:24;5.50;99.90
11812;DHT22;5963;50.184;9.162;2023-01-04T02:50:19;5.30;99.90
11812;DHT22;5963;50.184;9.162;2023-01-04T02:53:05;5.40;99.90
11812;DHT22;5963;50.184;9.162;2023-01-04T02:55:46;5.50;99.90
11812;DHT22;5963;50.184;9.162;2023-01-04T02:58:31;5.40;99.90
11812;DHT22;5963;50.184;9.162;2023-01-04T03:01:12;5.40;99.90
11812;DHT22;5963;50.184;9.162;2023-01-04T03:04:10;5.50;99.90
11812;DHT22;5963;50.184;9.162;2023-01-04T03:07:07;5.70;99.90
11812;DHT22;5963;50.184;9.162;2023-01-04T03:09:42;5.60;99.90
11812;DHT22;5963;50.184;9.162;2023-01-04T03:12:17;5.70;99.90
11812;DHT22;5963;50.184;9.162;2023-01-04T03:15:05;5.70;99.90
11812;DHT22;5963;50.184;9.162;2023-01-04T03:17:41;5.80;99.90
11812;DHT22;5963;50.184;9.162;2023-01-04T03:20:16;5.80;99.90
11812;DHT22;5963;50.184;9.162;2023-01-04T03:22:48;5.80;99.90
11812;DHT22;5963;50.184;9.162;2023-01-04T03:25:41;5.80;99.90
11812;DHT22;5963;50.184;9.162;2023-01-04T03:28:35;5.90;99.90
11812;DHT22;5963;50.184;9.162;2023-01-04T03:31:28;5.80;99.90
11812;DHT22;5963;50.184;9.162;2023-01-04T03:34:19;5.70;99.90
11812;DHT22;5963;50.184;9.162;2023-01-04T03:37:17;5.70;99.90
11812;DHT22;5963;50.184;9.162;2023-01-04T03:40:03;5.70;99.90
11812;DHT22;5963;50.184;9.162;2023-01-04T03:42:59;5.70;99.90
11812;DHT22;5963;50.184;9.162;2023-01-04T03:46:00;5.70;99.90
11812;DHT22;5963;50.184;9.162;2023-01-04T03:48:52;6.10;99.90
11812;DHT22;5963;50.184;9.162;2023-01-04T03:51:27;6.00;99.90
11812;DHT22;5963;50.184;9.162;2023-01-04T03:54:06;6.10;99.90
11812;DHT22;5963;50.184;9.162;2023-01-04T03:56:42;6.30;99.90
11812;DHT22;5963;50.184;9.162;2023-01-04T03:59:13;6.40;99.90
11812;DHT22;5963;50.184;9.162;2023-01-04T04:01:44;6.50;99.90
11812;DHT22;5963;50.184;9.162;2023-01-04T04:04:16;6.50;99.90
11812;DHT22;5963;50.184;9.162;2023-01-04T04:07:05;6.60;99.90
11812;DHT22;5963;50.184;9.162;2023-01-04T04:09:55;6.60;99.90
11812;DHT22;5963;50.184;9.162;2023-01-04T04:12:26;6.70;99.90
11812;DHT22;5963;50.184;9.162;2023-01-04T04:15:03;6.70;99.90
11812;DHT22;5963;50.184;9.162;2023-01-04T04:17:34;6.80;99.90
11812;DHT22;5963;50.184;9.162;2023-01-04T04:20:04;6.80;99.90
11812;DHT22;5963;50.184;9.162;2023-01-04T04:22:37;6.80;99.90
11812;DHT22;5963;50.184;9.162;2023-01-04T04:25:08;6.90;99.90
11812;DHT22;5963;50.184;9.162;2023-01-04T04:27:39;6.80;99.90
11812;DHT22;5963;50.184;9.162;2023-01-04T04:30:10;6.80;99.90
11812;DHT22;5963;50.184;9.162;2023-01-04T04:32:41;6.80;99.90
11812;DHT22;5963;50.184;9.162;2023-01-04T04:35:15;6.80;99.90
11812;DHT22;5963;50.184;9.162;2023-01-04T04:37:45;6.80;99.90
11812;DHT22;5963;50.184;9.162;2023-01-04T04:40:23;6.80;99.90
11812;DHT22;5963;50.184;9.162;2023-01-04T04:43:20;6.80;99.90
11812;DHT22;5963;50.184;9.162;2023-01-04T04:45:50;6.80;99.90
11812;DHT22;5963;50.184;9.162;2023-01-04T04:48:21;6.70;99.90
11812;DHT22;5963;50.184;9.162;2023-01-04T04:50:52;6.70;99.90
11812;DHT22;5963;50.184;9.162;2023-01-04T04:53:25;6.60;99.90
11812;DHT22;5963;50.184;9.162;2023-01-04T04:55:56;6.70;99.90
11812;DHT22;5963;50.184;9.162;2023-01-04T04:58:27;6.60;99.90
11812;DHT22;5963;50.184;9.162;2023-01-04T05:00:58;6.60;99.90
11812;DHT22;5963;50.184;9.162;2023-01-04T05:03:29;6.50;99.90
11812;DHT22;5963;50.184;9.162;2023-01-04T05:06:00;6.50;99.90
11812;DHT22;5963;50.184;9.162;2023-01-04T05:08:32;6.40;99.90
11812;DHT22;5963;50.184;9.162;2023-01-04T05:11:09;6.30;99.90
11812;DHT22;5963;50.184;9.162;2023-01-04T05:13:40;6.30;99.90
11812;DHT22;5963;50.184;9.162;2023-01-04T05:16:12;6.30;99.90
11812;DHT22;5963;50.184;9.162;2023-01-04T05:18:42;6.30;99.90
11812;DHT22;5963;50.184;9.162;2023-01-04T05:21:12;6.50;99.90
11812;DHT22;5963;50.184;9.162;2023-01-04T05:23:48;6.40;99.90
11812;DHT22;5963;50.184;9.162;2023-01-04T05:26:21;6.40;99.90
11812;DHT22;5963;50.184;9.162;2023-01-04T05:28:52;6.30;99.90
11812;DHT22;5963;50.184;9.162;2023-01-04T05:31:24;6.40;99.90
11812;DHT22;5963;50.184;9.162;2023-01-04T05:34:00;6.30;99.90
11812;DHT22;5963;50.184;9.162;2023-01-04T05:36:31;6.30;99.90
11812;DHT22;5963;50.184;9.162;2023-01-04T05:38:59;6.30;99.90
11812;DHT22;5963;50.184;9.162;2023-01-04T05:41:31;6.30;99.90
11812;DHT22;5963;50.184;9.162;2023-01-04T05:44:20;6.40;99.90
11812;DHT22;5963;50.184;9.162;2023-01-04T05:46:50;6.50;99.90
11812;DHT22;5963;50.184;9.162;2023-01-04T05:49:19;6.50;99.90
11812;DHT22;5963;50.184;9.162;2023-01-04T05:51:51;6.50;99.90
11812;DHT22;5963;50.184;9.162;2023-01-04T05:54:19;6.60;99.90
11812;DHT22;5963;50.184;9.162;2023-01-04T05:56:58;6.60;99.90
11812;DHT22;5963;50.184;9.162;2023-01-04T05:59:30;6.60;99.90
11812;DHT22;5963;50.184;9.162;2023-01-04T06:02:12;6.50;99.90
11812;DHT22;5963;50.184;9.162;2023-01-04T06:04:44;6.60;99.90
11812;DHT22;5963;50.184;9.162;2023-01-04T06:07:23;6.70;99.90
11812;DHT22;5963;50.184;9.162;2023-01-04T06:09:53;6.80;99.90
11812;DHT22;5963;50.184;9.162;2023-01-04T06:12:25;6.80;99.90
11812;DHT22;5963;50.184;9.162;2023-01-04T06:14:55;6.70;99.90
11812;DHT22;5963;50.184;9.162;2023-01-04T06:17:27;6.80;99.90
11812;DHT22;5963;50.184;9.162;2023-01-04T06:19:57;6.90;99.90
11812;DHT22;5963;50.184;9.162;2023-01-04T06:22:29;6.80;99.90
11812;DHT22;5963;50.184;9.162;2023-01-04T06:25:01;6.80;99.90
11812;DHT22;5963;50.184;9.162;2023-01-04T06:27:32;6.80;99.90
11812;DHT22;5963;50.184;9.162;2023-01-04T06:30:03;6.80;99.90
11812;DHT22;5963;50.184;9.162;2023-01-04T06:32:33;6.80;99.90
11812;DHT22;5963;50.184;9.162;2023-01-04T06:35:04;6.80;99.90
11812;DHT22;5963;50.184;9.162;2023-01-04T06:37:35;6.80;99.90
11812;DHT22;5963;50.184;9.162;2023-01-04T06:40:05;6.80;99.90
11812;DHT22;5963;50.184;9.162;2023-01-04T06:42:37;6.80;99.90
11812;DHT22;5963;50.184;9.162;2023-01-04T06:45:14;6.70;99.90
11812;DHT22;5963;50.184;9.162;2023-01-04T06:47:45;6.70;99.90
11812;DHT22;5963;50.184;9.162;2023-01-04T06:50:14;6.70;99.90
11812;DHT22;5963;50.184;9.162;2023-01-04T06:52:49;6.70;99.90
11812;DHT22;5963;50.184;9.162;2023-01-04T06:55:19;6.60;99.90
11812;DHT22;5963;50.184;9.162;2023-01-04T06:57:51;6.70;99.90
11812;DHT22;5963;50.184;9.162;2023-01-04T07:00:27;6.70;99.90
11812;DHT22;5963;50.184;9.162;2023-01-04T07:03:03;6.60;99.90
11812;DHT22;5963;50.184;9.162;2023-01-04T07:05:41;6.60;99.90
11812;DHT22;5963;50.184;9.162;2023-01-04T07:08:12;6.60;99.90
11812;DHT22;5963;50.184;9.162;2023-01-04T07:10:43;6.70;99.90
11812;DHT22;5963;50.184;9.162;2023-01-04T07:13:15;6.70;99.90
11812;DHT22;5963;50.184;9.162;2023-01-04T07:15:46;6.60;99.90
11812;DHT22;5963;50.184;9.162;2023-01-04T07:18:16;6.70;99.90
11812;DHT22;5963;50.184;9.162;2023-01-04T07:20:47;6.70;99.90
11812;DHT22;5963;50.184;9.162;2023-01-04T07:23:18;6.70;99.90
11812;DHT22;5963;50.184;9.162;2023-01-04T07:25:48;6.70;99.90
11812;DHT22;5963;50.184;9.162;2023-01-04T07:28:18;6.70;99.90
11812;DHT22;5963;50.184;9.162;2023-01-04T07:31:03;6.80;99.90
11812;DHT22;5963;50.184;9.162;2023-01-04T07:33:35;6.80;99.90
11812;DHT22;5963;50.184;9.162;2023-01-04T07:36:29;6.80;99.90
11812;DHT22;5963;50.184;9.162;2023-01-04T07:39:14;6.80;99.90
11812;DHT22;5963;50.184;9.162;2023-01-04T07:41:48;6.70;99.90
11812;DHT22;5963;50.184;9.162;2023-01-04T07:44:20;6.80;99.90
11812;DHT22;5963;50.184;9.162;2023-01-04T07:46:50;6.70;99.90
11812;DHT22;5963;50.184;9.162;2023-01-04T07:49:27;6.70;99.90
11812;DHT22;5963;50.184;9.162;2023-01-04T07:51:58;6.70;99.90
11812;DHT22;5963;50.184;9.162;2023-01-04T07:54:29;6.70;99.90
11812;DHT22;5963;50.184;9.162;2023-01-04T07:57:07;6.70;99.90
11812;DHT22;5963;50.184;9.162;2023-01-04T07:59:37;6.80;99.90
11812;DHT22;5963;50.184;9.162;2023-01-04T08:02:11;6.70;99.90
11812;DHT22;5963;50.184;9.162;2023-01-04T08:04:46;6.70;99.90
11812;DHT22;5963;50.184;9.162;2023-01-04T08:07:16;6.70;99.90
11812;DHT22;5963;50.184;9.162;2023-01-04T08:09:46;6.80;99.90
11812;DHT22;5963;50.184;9.162;2023-01-04T08:12:24;6.80;99.90
11812;DHT22;5963;50.184;9.162;2023-01-04T08:14:59;6.80;99.90
11812;DHT22;5963;50.184;9.162;2023-01-04T08:17:32;6.80;99.90
11812;DHT22;5963;50.184;9.162;2023-01-04T08:20:06;6.90;99.90
11812;DHT22;5963;50.184;9.162;2023-01-04T08:22:40;6.90;99.90
11812;DHT22;5963;50.184;9.162;2023-01-04T08:25:12;6.90;99.90
11812;DHT22;5963;50.184;9.162;2023-01-04T08:27:47;6.90;99.90
11812;DHT22;5963;50.184;9.162;2023-01-04T08:30:19;7.00;99.90
11812;DHT22;5963;50.184;9.162;2023-01-04T08:32:53;7.00;99.90
11812;DHT22;5963;50.184;9.162;2023-01-04T08:35:25;7.00;99.90
11812;DHT22;5963;50.184;9.162;2023-01-04T08:37:57;7.00;99.90
11812;DHT22;5963;50.184;9.162;2023-01-04T08:40:50;7.00;99.90
11812;DHT22;5963;50.184;9.162;2023-01-04T08:43:31;7.00;99.90
11812;DHT22;5963;50.184;9.162;2023-01-04T08:46:05;7.00;99.90
11812;DHT22;5963;50.184;9.162;2023-01-04T08:48:36;7.00;99.90
11812;DHT22;5963;50.184;9.162;2023-01-04T08:51:09;7.00;99.90
11812;DHT22;5963;50.184;9.162;2023-01-04T08:53:46;7.00;99.90
11812;DHT22;5963;50.184;9.162;2023-01-04T08:56:18;7.00;99.90
11812;DHT22;5963;50.184;9.162;2023-01-04T08:58:47;7.00;99.90
11812;DHT22;5963;50.184;9.162;2023-01-04T09:01:20;7.00;99.90
11812;DHT22;5963;50.184;9.162;2023-01-04T09:03:51;7.00;99.90
11812;DHT22;5963;50.184;9.162;2023-01-04T09:06:23;7.10;99.90
11812;DHT22;5963;50.184;9.162;2023-01-04T09:08:54;7.10;99.90
11812;DHT22;5963;50.184;9.162;2023-01-04T09:11:27;7.10;99.90
11812;DHT22;5963;50.184;9.162;2023-01-04T09:14:00;7.10;99.90
11812;DHT22;5963;50.184;9.162;2023-01-04T09:16:38;7.10;99.90
11812;DHT22;5963;50.184;9.162;2023-01-04T09:19:09;7.20;99.90
11812;DHT22;5963;50.184;9.162;2023-01-04T09:21:48;7.20;99.90
11812;DHT22;5963;50.184;9.162;2023-01-04T09:24:27;7.20;99.90
11812;DHT22;5963;50.184;9.162;2023-01-04T09:26:59;7.20;99.90
11812;DHT22;5963;50.184;9.162;2023-01-04T09:29:30;7.30;99.90
11812;DHT22;5963;50.184;9.162;2023-01-04T09:32:04;7.20;99.90
11812;DHT22;5963;50.184;9.162;2023-01-04T09:34:43;7.30;99.90
11812;DHT22;5963;50.184;9.162;2023-01-04T09:37:12;7.30;99.90
11812;DHT22;5963;50.184;9.162;2023-01-04T09:39:42;7.30;99.90
11812;DHT22;5963;50.184;9.162;2023-01-04T09:42:16;7.20;99.90
11812;DHT22;5963;50.184;9.162;2023-01-04T09:44:53;7.30;99.90
11812;DHT22;5963;50.184;9.162;2023-01-04T09:47:52;7.30;99.90
11812;DHT22;5963;50.184;9.162;2023-01-04T09:50:26;7.30;99.90
11812;DHT22;5963;50.184;9.162;2023-01-04T09:53:02;7.40;99.90
11812;DHT22;5963;50.184;9.162;2023-01-04T09:55:42;7.40;99.90
11812;DHT22;5963;50.184;9.162;2023-01-04T09:58:19;7.40;99.90
11812;DHT22;5963;50.184;9.162;2023-01-04T10:00:54;7.40;99.90
11812;DHT22;5963;50.184;9.162;2023-01-04T10:03:33;7.40;99.90
11812;DHT22;5963;50.184;9.162;2023-01-04T10:06:03;7.40;99.90
11812;DHT22;5963;50.184;9.162;2023-01-04T10:08:37;7.40;99.90
11812;DHT22;5963;50.184;9.162;2023-01-04T10:14:20;7.50;99.90
11812;DHT22;5963;50.184;9.162;2023-01-04T10:17:11;7.40;99.90
11812;DHT22;5963;50.184;9.162;2023-01-04T10:20:23;7.50;99.90
11812;DHT22;5963;50.184;9.162;2023-01-04T10:23:18;7.50;99.90
11812;DHT22;5963;50.184;9.162;2023-01-04T10:25:55;7.50;99.90
11812;DHT22;5963;50.184;9.162;2023-01-04T10:28:36;7.50;99.90
11812;DHT22;5963;50.184;9.162;2023-01-04T10:31:14;7.60;99.90
11812;DHT22;5963;50.184;9.162;2023-01-04T10:34:15;7.60;99.90
11812;DHT22;5963;50.184;9.162;2023-01-04T10:36:50;7.60;99.90
11812;DHT22;5963;50.184;9.162;2023-01-04T10:39:24;7.60;99.90
11812;DHT22;5963;50.184;9.162;2023-01-04T10:42:05;7.60;99.90
11812;DHT22;5963;50.184;9.162;2023-01-04T10:44:43;7.70;99.90
11812;DHT22;5963;50.184;9.162;2023-01-04T10:47:27;7.70;99.90
11812;DHT22;5963;50.184;9.162;2023-01-04T10:49:59;7.70;99.90
11812;DHT22;5963;50.184;9.162;2023-01-04T10:52:39;7.70;99.90
11812;DHT22;5963;50.184;9.162;2023-01-04T10:55:24;7.80;99.90
11812;DHT22;5963;50.184;9.162;2023-01-04T10:58:01;7.80;99.90
11812;DHT22;5963;50.184;9.162;2023-01-04T11:00:36;7.80;99.90
11812;DHT22;5963;50.184;9.162;2023-01-04T11:03:17;7.80;99.90
11812;DHT22;5963;50.184;9.162;2023-01-04T11:05:53;7.90;99.90
11812;DHT22;5963;50.184;9.162;2023-01-04T11:08:31;7.90;99.90
11812;DHT22;5963;50.184;9.162;2023-01-04T11:11:04;7.90;99.90
11812;DHT22;5963;50.184;9.162;2023-01-04T11:13:37;7.90;99.90
11812;DHT22;5963;50.184;9.162;2023-01-04T11:16:09;7.90;99.90
11812;DHT22;5963;50.184;9.162;2023-01-04T11:18:41;8.00;99.90
11812;DHT22;5963;50.184;9.162;2023-01-04T11:21:14;7.90;99.90
11812;DHT22;5963;50.184;9.162;2023-01-04T11:23:46;8.00;99.90
11812;DHT22;5963;50.184;9.162;2023-01-04T11:26:21;8.00;99.90
11812;DHT22;5963;50.184;9.162;2023-01-04T11:29:01;8.00;99.90
11812;DHT22;5963;50.184;9.162;2023-01-04T11:31:39;8.00;99.90
11812;DHT22;5963;50.184;9.162;2023-01-04T11:34:15;8.00;99.90
11812;DHT22;5963;50.184;9.162;2023-01-04T11:36:46;8.00;99.90
11812;DHT22;5963;50.184;9.162;2023-01-04T11:39:21;8.00;99.90
11812;DHT22;5963;50.184;9.162;2023-01-04T11:41:55;8.00;99.90
11812;DHT22;5963;50.184;9.162;2023-01-04T11:44:32;8.00;99.90
11812;DHT22;5963;50.184;9.162;2023-01-04T11:47:14;8.10;99.90
11812;DHT22;5963;50.184;9.162;2023-01-04T11:49:47;8.10;99.90
11812;DHT22;5963;50.184;9.162;2023-01-04T11:52:30;8.10;99.90
11812;DHT22;5963;50.184;9.162;2023-01-04T11:55:24;8.10;99.90
11812;DHT22;5963;50.184;9.162;2023-01-04T11:58:09;8.10;99.90
11812;DHT22;5963;50.184;9.162;2023-01-04T12:00:40;8.10;99.90
11812;DHT22;5963;50.184;9.162;2023-01-04T12:03:19;8.10;99.90
11812;DHT22;5963;50.184;9.162;2023-01-04T12:05:56;8.10;99.90
11812;DHT22;5963;50.184;9.162;2023-01-04T12:08:28;8.20;99.90
11812;DHT22;5963;50.184;9.162;2023-01-04T12:11:02;8.20;99.90
11812;DHT22;5963;50.184;9.162;2023-01-04T12:13:41;8.20;99.90
11812;DHT22;5963;50.184;9.162;2023-01-04T12:16:18;8.20;99.90
11812;DHT22;5963;50.184;9.162;2023-01-04T12:18:52;8.20;99.90
11812;DHT22;5963;50.184;9.162;2023-01-04T12:21:27;8.30;99.90
11812;DHT22;5963;50.184;9.162;2023-01-04T12:23:55;8.30;99.90
11812;DHT22;5963;50.184;9.162;2023-01-04T12:29:44;8.40;99.90
11812;DHT22;5963;50.184;9.162;2023-01-04T12:32:43;8.40;99.90
11812;DHT22;5963;50.184;9.162;2023-01-04T12:47:54;8.60;99.90
11812;DHT22;5963;50.184;9.162;2023-01-04T12:54:24;8.60;99.90
11812;DHT22;5963;50.184;9.162;2023-01-04T12:57:22;8.60;99.90
11812;DHT22;5963;50.184;9.162;2023-01-04T12:59:57;8.60;99.90
11812;DHT22;5963;50.184;9.162;2023-01-04T13:02:30;8.60;99.90
11812;DHT22;5963;50.184;9.162;2023-01-04T13:05:02;8.60;99.90
11812;DHT22;5963;50.184;9.162;2023-01-04T13:07:57;8.50;99.90
11812;DHT22;5963;50.184;9.162;2023-01-04T13:10:32;8.40;99.90
11812;DHT22;5963;50.184;9.162;2023-01-04T13:13:13;8.40;99.90
11812;DHT22;5963;50.184;9.162;2023-01-04T13:15:58;8.30;99.90
11812;DHT22;5963;50.184;9.162;2023-01-04T13:18:36;8.40;99.90
11812;DHT22;5963;50.184;9.162;2023-01-04T13:21:12;8.30;99.90
11812;DHT22;5963;50.184;9.162;2023-01-04T13:23:51;8.30;99.90
11812;DHT22;5963;50.184;9.162;2023-01-04T13:26:36;8.20;99.90
11812;DHT22;5963;50.184;9.162;2023-01-04T13:29:16;8.30;99.90
11812;DHT22;5963;50.184;9.162;2023-01-04T13:31:55;8.20;99.90
11812;DHT22;5963;50.184;9.162;2023-01-04T13:34:29;8.30;99.90
11812;DHT22;5963;50.184;9.162;2023-01-04T13:37:05;8.20;99.90
11812;DHT22;5963;50.184;9.162;2023-01-04T13:39:36;8.20;99.90
11812;DHT22;5963;50.184;9.162;2023-01-04T13:42:11;8.30;99.90
11812;DHT22;5963;50.184;9.162;2023-01-04T13:45:11;8.30;99.90
11812;DHT22;5963;50.184;9.162;2023-01-04T13:47:48;8.30;99.90
11812;DHT22;5963;50.184;9.162;2023-01-04T13:50:27;8.30;99.90
11812;DHT22;5963;50.184;9.162;2023-01-04T13:52:57;8.20;99.90
11812;DHT22;5963;50.184;9.162;2023-01-04T13:55:35;8.30;99.90
11812;DHT22;5963;50.184;9.162;2023-01-04T13:58:14;8.30;99.90
11812;DHT22;5963;50.184;9.162;2023-01-04T14:00:47;8.30;99.90
11812;DHT22;5963;50.184;9.162;2023-01-04T14:03:33;8.40;99.90
11812;DHT22;5963;50.184;9.162;2023-01-04T14:06:18;8.40;99.90
11812;DHT22;5963;50.184;9.162;2023-01-04T14:08:52;8.50;99.90
11812;DHT22;5963;50.184;9.162;2023-01-04T14:11:24;8.40;99.90
11812;DHT22;5963;50.184;9.162;2023-01-04T14:14:24;8.40;99.90
11812;DHT22;5963;50.184;9.162;2023-01-04T14:17:18;8.40;99.90
11812;DHT22;5963;50.184;9.162;2023-01-04T14:19:49;8.40;99.90
11812;DHT22;5963;50.184;9.162;2023-01-04T14:22:34;8.40;99.90
11812;DHT22;5963;50.184;9.162;2023-01-04T14:28:31;8.40;99.90
11812;DHT22;5963;50.184;9.162;2023-01-04T14:31:30;8.40;99.90
11812;DHT22;5963;50.184;9.162;2023-01-04T14:34:07;8.40;99.90
11812;DHT22;5963;50.184;9.162;2023-01-04T14:36:41;8.40;99.90
11812;DHT22;5963;50.184;9.162;2023-01-04T14:39:28;8.40;99.90
11812;DHT22;5963;50.184;9.162;2023-01-04T14:42:00;8.50;99.90
11812;DHT22;5963;50.184;9.162;2023-01-04T14:44:31;8.50;99.90
11812;DHT22;5963;50.184;9.162;2023-01-04T14:47:03;8.50;99.90
11812;DHT22;5963;50.184;9.162;2023-01-04T14:49:35;8.50;99.90
11812;DHT22;5963;50.184;9.162;2023-01-04T14:52:11;8.60;99.90
11812;DHT22;5963;50.184;9.162;2023-01-04T14:54:42;8.60;99.90
11812;DHT22;5963;50.184;9.162;2023-01-04T14:57:12;8.60;99.90
11812;DHT22;5963;50.184;9.162;2023-01-04T14:59:42;8.70;99.90
11812;DHT22;5963;50.184;9.162;2023-01-04T15:02:13;8.60;99.90
11812;DHT22;5963;50.184;9.162;2023-01-04T15:04:43;8.70;99.90
11812;DHT22;5963;50.184;9.162;2023-01-04T15:07:31;8.70;99.90
11812;DHT22;5963;50.184;9.162;2023-01-04T15:10:06;8.70;99.90
11812;DHT22;5963;50.184;9.162;2023-01-04T15:12:36;8.80;99.90
11812;DHT22;5963;50.184;9.162;2023-01-04T15:15:07;8.80;99.90
11812;DHT22;5963;50.184;9.162;2023-01-04T15:17:38;8.90;99.90
11812;DHT22;5963;50.184;9.162;2023-01-04T15:20:09;8.90;99.90
11812;DHT22;5963;50.184;9.162;2023-01-04T15:22:39;8.90;99.90
11812;DHT22;5963;50.184;9.162;2023-01-04T15:25:11;8.90;99.90
11812;DHT22;5963;50.184;9.162;2023-01-04T15:27:41;9.00;99.90
11812;DHT22;5963;50.184;9.162;2023-01-04T15:30:12;8.90;99.90
11812;DHT22;5963;50.184;9.162;2023-01-04T15:32:42;9.00;99.90
11812;DHT22;5963;50.184;9.162;2023-01-04T15:35:12;9.00;99.90
11812;DHT22;5963;50.184;9.162;2023-01-04T15:37:44;9.00;99.90
11812;DHT22;5963;50.184;9.162;2023-01-04T15:40:17;9.00;99.90
11812;DHT22;5963;50.184;9.162;2023-01-04T15:42:47;9.10;99.90
11812;DHT22;5963;50.184;9.162;2023-01-04T15:45:30;9.10;99.90
11812;DHT22;5963;50.184;9.162;2023-01-04T15:48:00;9.10;99.90
11812;DHT22;5963;50.184;9.162;2023-01-04T15:50:32;9.20;99.90
11812;DHT22;5963;50.184;9.162;2023-01-04T15:53:02;9.20;99.90
11812;DHT22;5963;50.184;9.162;2023-01-04T15:55:34;9.20;99.90
11812;DHT22;5963;50.184;9.162;2023-01-04T15:58:05;9.30;99.90
11812;DHT22;5963;50.184;9.162;2023-01-04T16:00:34;9.30;99.90
11812;DHT22;5963;50.184;9.162;2023-01-04T16:03:06;9.30;99.90
11812;DHT22;5963;50.184;9.162;2023-01-04T16:05:36;9.40;99.90
11812;DHT22;5963;50.184;9.162;2023-01-04T16:08:06;9.30;99.90
11812;DHT22;5963;50.184;9.162;2023-01-04T16:10:37;9.40;99.90
11812;DHT22;5963;50.184;9.162;2023-01-04T16:13:07;9.50;99.90
11812;DHT22;5963;50.184;9.162;2023-01-04T16:15:37;9.50;99.90
11812;DHT22;5963;50.184;9.162;2023-01-04T16:18:08;9.40;99.90
11812;DHT22;5963;50.184;9.162;2023-01-04T16:20:41;9.50;99.90
11812;DHT22;5963;50.184;9.162;2023-01-04T16:23:11;9.50;99.90
11812;DHT22;5963;50.184;9.162;2023-01-04T16:25:42;9.60;99.90
11812;DHT22;5963;50.184;9.162;2023-01-04T16:28:12;9.50;99.90
11812;DHT22;5963;50.184;9.162;2023-01-04T16:30:41;9.50;99.90
11812;DHT22;5963;50.184;9.162;2023-01-04T16:33:11;9.60;99.90
11812;DHT22;5963;50.184;9.162;2023-01-04T16:35:41;9.60;99.90
11812;DHT22;5963;50.184;9.162;2023-01-04T16:38:11;9.60;99.90
11812;DHT22;5963;50.184;9.162;2023-01-04T16:40:42;9.60;99.90
11812;DHT22;5963;50.184;9.162;2023-01-04T16:43:12;9.60;99.90
11812;DHT22;5963;50.184;9.162;2023-01-04T16:45:41;9.60;99.90
11812;DHT22;5963;50.184;9.162;2023-01-04T16:48:11;9.70;99.90
11812;DHT22;5963;50.184;9.162;2023-01-04T16:50:46;9.70;99.90
11812;DHT22;5963;50.184;9.162;2023-01-04T16:53:16;9.60;99.90
11812;DHT22;5963;50.184;9.162;2023-01-04T16:55:47;9.70;99.90
11812;DHT22;5963;50.184;9.162;2023-01-04T16:58:18;9.70;99.90
11812;DHT22;5963;50.184;9.162;2023-01-04T17:00:48;9.70;99.90
11812;DHT22;5963;50.184;9.162;2023-01-04T17:03:17;9.80;99.90
11812;DHT22;5963;50.184;9.162;2023-01-04T17:05:47;9.80;99.90
11812;DHT22;5963;50.184;9.162;2023-01-04T17:08:17;9.80;99.90
11812;DHT22;5963;50.184;9.162;2023-01-04T17:10:55;9.80;99.90
11812;DHT22;5963;50.184;9.162;2023-01-04T17:13:45;9.80;99.90
11812;DHT22;5963;50.184;9.162;2023-01-04T17:16:15;9.80;99.90
11812;DHT22;5963;50.184;9.162;2023-01-04T17:18:47;9.80;99.90
11812;DHT22;5963;50.184;9.162;2023-01-04T17:21:19;9.80;99.90
11812;DHT22;5963;50.184;9.162;2023-01-04T17:24:02;9.90;99.90
11812;DHT22;5963;50.184;9.162;2023-01-04T17:26:33;9.90;99.90